Time;durP1;ratioP1;P1;durP2;ratioP2;P2;SDS_P1;SDS_P2;PMS_P1;PMS_P2;Temp;Humidity;BMP_temperature;BMP_pressure;BME280_temperature;BME280_humidity;BME280_pressure;Samples;Min_cycle;Max_cycle;Signal;HPM_P1;HPM_P2
2022/10/20 00:00:43;;;;;;;11.93;8.45;;;;;;;12.82;76.67;100235.25;1088142;54;20030;-85
2022/10/20 00:01:46;;;;;;;12.98;9.23;;;;;;;12.82;76.49;100230.75;1088088;54;20035;-83
2022/10/20 00:02:50;;;;;;;14.88;9.10;;;;;;;12.78;76.51;100235.59;1088119;54;20820;-84
2022/10/20 00:03:52;;;;;;;12.57;8.68;;;;;;;12.77;76.60;100230.38;1088064;54;20064;-84
2022/10/20 00:04:57;;;;;;;11.55;8.00;;;;;;;12.83;76.20;100221.72;1088026;54;20030;-84
2022/10/20 00:06:06;;;;;;;11.05;8.38;;;;;;;12.77;76.10;100216.94;1088115;54;20031;-83
2022/10/20 00:07:10;;;;;;;13.40;9.55;;;;;;;12.73;76.11;100223.63;1088089;54;20035;-84
2022/10/20 00:08:11;;;;;;;12.77;9.82;;;;;;;12.72;76.36;100220.09;1088119;54;20022;-84
2022/10/20 00:09:18;;;;;;;12.25;9.68;;;;;;;12.72;76.38;100224.63;1088010;54;20034;-82
2022/10/20 00:10:19;;;;;;;12.73;8.90;;;;;;;12.73;76.35;100220.97;1088106;54;20035;-83
2022/10/20 00:11:25;;;;;;;12.10;8.90;;;;;;;12.72;76.20;100211.22;1088152;54;20045;-83
2022/10/20 00:12:27;;;;;;;14.15;9.63;;;;;;;12.62;76.34;100220.19;1088117;54;20041;-83
2022/10/20 00:13:31;;;;;;;15.45;9.55;;;;;;;12.62;76.51;100214.84;1088092;54;20030;-82
2022/10/20 00:14:33;;;;;;;14.30;9.75;;;;;;;12.63;76.37;100216.53;1088063;54;20077;-84
2022/10/20 00:15:37;;;;;;;13.45;9.60;;;;;;;12.66;76.25;100220.72;1088612;46;20050;-84
2022/10/20 00:16:38;;;;;;;12.32;8.65;;;;;;;12.73;76.24;100218.28;1087966;54;20030;-84
2022/10/20 00:17:43;;;;;;;14.70;9.32;;;;;;;12.60;76.19;100219.50;1088057;54;20035;-85
2022/10/20 00:18:45;;;;;;;12.95;9.15;;;;;;;12.61;76.38;100212.31;1088113;54;20034;-84
2022/10/20 00:19:50;;;;;;;11.85;8.13;;;;;;;12.57;76.12;100217.13;1087971;54;20040;-85
2022/10/20 00:20:52;;;;;;;14.52;9.52;;;;;;;12.60;75.96;100214.13;1088030;54;20030;-83
2022/10/20 00:21:56;;;;;;;11.77;9.18;;;;;;;12.59;76.28;100214.31;1088068;54;20098;-84
2022/10/20 00:22:58;;;;;;;12.98;9.00;;;;;;;12.60;75.87;100216.00;1088030;54;20061;-85
2022/10/20 00:24:03;;;;;;;12.68;8.85;;;;;;;12.66;76.12;100222.59;1088075;54;20092;-84
2022/10/20 00:25:08;;;;;;;11.73;8.45;;;;;;;12.67;75.66;100219.72;1087919;54;20764;-84
2022/10/20 00:26:15;;;;;;;11.50;8.40;;;;;;;12.70;75.67;100215.91;1088102;54;20094;-84
2022/10/20 00:27:19;;;;;;;11.88;7.78;;;;;;;12.75;75.46;100218.97;1088071;54;20035;-83
2022/10/20 00:28:21;;;;;;;12.57;8.30;;;;;;;12.71;75.44;100209.53;1088040;54;20038;-84
2022/10/20 00:29:25;;;;;;;11.88;7.82;;;;;;;12.72;75.37;100214.72;1088055;54;20011;-84
2022/10/20 00:30:26;;;;;;;12.45;7.85;;;;;;;12.72;75.36;100209.38;1088013;54;20035;-85
2022/10/20 00:31:30;;;;;;;12.52;8.35;;;;;;;12.67;75.16;100208.16;1091526;39;20781;-85
2022/10/20 00:32:32;;;;;;;11.15;8.63;;;;;;;12.67;75.51;100213.50;1088050;54;20037;-85
2022/10/20 00:33:36;;;;;;;11.05;8.70;;;;;;;12.63;75.53;100208.47;1088016;54;20037;-84
2022/10/20 00:34:38;;;;;;;13.48;8.73;;;;;;;12.63;75.59;100216.53;1087969;54;20038;-85
2022/10/20 00:35:42;;;;;;;10.45;7.50;;;;;;;12.69;75.44;100208.84;1088483;39;20630;-85
2022/10/20 00:36:43;;;;;;;10.52;8.18;;;;;;;12.60;75.14;100207.94;1088048;54;20034;-83
2022/10/20 00:37:47;;;;;;;10.40;7.32;;;;;;;12.70;75.34;100205.16;1087996;54;20031;-85
2022/10/20 00:38:50;;;;;;;11.30;8.45;;;;;;;12.59;75.48;100214.31;1087995;54;20750;-83
2022/10/20 00:39:54;;;;;;;11.88;7.95;;;;;;;12.61;75.52;100207.78;1087945;54;20046;-84
2022/10/20 00:40:58;;;;;;;10.82;8.60;;;;;;;12.65;74.99;100208.31;1087993;54;20073;-86
2022/10/20 00:42:04;;;;;;;11.02;7.72;;;;;;;12.71;74.97;100212.22;1088019;54;20046;-83
2022/10/20 00:43:09;;;;;;;9.55;6.88;;;;;;;12.76;74.90;100215.25;1088095;54;20015;-84
2022/10/20 00:44:43;;;;;;;12.63;7.43;;;;;;;12.77;74.25;100214.28;1087985;54;20061;-84
2022/10/20 00:45:52;;;;;;;11.48;7.35;;;;;;;12.74;74.54;100212.75;1087998;54;20042;-84
2022/10/20 00:46:56;;;;;;;20.48;8.57;;;;;;;12.69;74.70;100203.47;1088031;54;20034;-85
2022/10/20 00:48:03;;;;;;;9.63;7.13;;;;;;;12.69;74.71;100208.84;1088004;54;20204;-83
2022/10/20 00:49:14;;;;;;;11.43;7.78;;;;;;;12.75;74.46;100202.88;1088022;54;20057;-85
2022/10/20 00:50:18;;;;;;;;;;;;;;;12.59;74.28;100209.75;1088151;54;20035;-85
2022/10/20 00:51:25;;;;;;;11.63;7.53;;;;;;;12.63;74.52;100203.13;1088020;54;19950;-85
2022/10/20 00:52:26;;;;;;;10.55;7.68;;;;;;;12.69;74.69;100201.66;1088057;54;20030;-85
2022/10/20 00:53:31;;;;;;;12.25;8.05;;;;;;;12.63;74.55;100211.16;1088019;54;20710;-83
2022/10/20 00:54:32;;;;;;;10.07;7.60;;;;;;;12.64;74.59;100207.47;1087989;54;20046;-85
2022/10/20 00:55:42;;;;;;;13.75;8.20;;;;;;;12.56;74.32;100214.59;1087925;54;21102;-84
2022/10/20 00:56:48;;;;;;;13.38;9.57;;;;;;;12.49;74.91;100211.69;1087852;54;20034;-85
2022/10/20 00:57:55;;;;;;;13.15;8.98;;;;;;;12.44;75.19;100206.78;1089902;46;20053;-85
2022/10/20 00:58:56;;;;;;;11.00;9.18;;;;;;;12.44;75.35;100208.63;1088044;54;20029;-83
2022/10/20 01:00:00;;;;;;;13.05;8.55;;;;;;;12.48;75.24;100207.31;1087876;54;20058;-81
2022/10/20 01:01:02;;;;;;;12.65;8.23;;;;;;;12.51;75.00;100198.97;1093218;39;20547;-82
2022/10/20 01:02:08;;;;;;;11.13;7.93;;;;;;;12.52;74.73;100195.28;1087962;54;20030;-84
2022/10/20 01:03:16;;;;;;;10.55;8.07;;;;;;;12.54;74.64;100185.25;1088041;54;20034;-82
2022/10/20 01:04:20;;;;;;;11.18;8.32;;;;;;;12.53;74.83;100188.94;1087935;54;20030;-81
2022/10/20 01:05:22;;;;;;;10.23;8.10;;;;;;;12.54;74.68;100185.25;1087776;54;20058;-83
2022/10/20 01:06:26;;;;;;;11.52;7.88;;;;;;;12.50;74.68;100186.56;1088016;54;20030;-83
2022/10/20 01:07:28;;;;;;;11.00;7.68;;;;;;;12.48;74.70;100180.50;1088009;54;20061;-83
2022/10/20 01:08:32;;;;;;;12.20;8.52;;;;;;;12.42;74.90;100186.50;1087988;54;20077;-83
2022/10/20 01:09:34;;;;;;;12.10;8.90;;;;;;;12.46;75.12;100182.50;1087960;54;20052;-82
2022/10/20 01:10:43;;;;;;;13.55;9.20;;;;;;;12.30;75.26;100184.03;1088000;54;20030;-84
2022/10/20 01:11:56;;;;;;;10.73;8.02;;;;;;;12.31;74.91;100172.31;1088048;54;20027;-84
2022/10/20 01:13:08;;;;;;;11.48;8.90;;;;;;;12.33;74.98;100164.97;1087971;54;20034;-85
2022/10/20 01:14:25;;;;;;;12.35;8.32;;;;;;;12.37;74.92;100172.72;1087953;54;20061;-84
2022/10/20 01:15:36;;;;;;;13.32;8.48;;;;;;;12.30;74.93;100159.91;1087961;54;20033;-83
2022/10/20 01:16:50;;;;;;;10.55;8.57;;;;;;;12.22;75.43;100162.50;1087855;54;20038;-84
2022/10/20 01:18:05;;;;;;;12.88;8.70;;;;;;;12.18;75.39;100161.16;1088026;54;20043;-82
2022/10/20 01:19:29;;;;;;;15.85;9.63;;;;;;;12.20;75.59;100159.13;1088012;54;20042;-83
2022/10/20 01:21:12;;;;;;;11.77;8.30;;;;;;;12.17;75.59;100154.94;1087924;54;20030;-84
2022/10/20 01:22:31;;;;;;;12.10;8.55;;;;;;;12.25;75.04;100158.66;1087716;46;20060;-80
2022/10/20 01:23:50;;;;;;;14.57;8.50;;;;;;;12.24;75.02;100160.53;1087519;54;20030;-80
2022/10/20 01:25:05;;;;;;;10.43;7.63;;;;;;;12.24;75.38;100157.84;1087573;54;20019;-80
2022/10/20 01:26:41;;;;;;;11.70;9.20;;;;;;;12.14;75.63;100152.53;1090415;46;20145;-80
2022/10/20 01:27:50;;;;;;;11.82;7.88;;;;;;;12.20;75.61;100155.63;1087904;54;20065;-81
2022/10/20 01:28:57;;;;;;;11.90;8.93;;;;;;;12.17;75.17;100149.56;1087859;54;20041;-81
2022/10/20 01:30:11;;;;;;;11.30;8.75;;;;;;;12.17;75.46;100151.41;1087853;54;20026;-79
2022/10/20 01:31:19;;;;;;;11.70;8.65;;;;;;;12.20;75.56;100156.44;1087858;54;20065;-80
2022/10/20 01:32:29;;;;;;;13.18;8.85;;;;;;;12.19;75.23;100152.09;1087852;54;20030;-80
2022/10/20 01:33:39;;;;;;;11.20;8.27;;;;;;;12.23;75.19;100148.13;1090461;46;20034;-81
2022/10/20 01:34:52;;;;;;;12.23;9.27;;;;;;;12.18;75.01;100153.09;1087799;54;20031;-80
2022/10/20 01:36:00;;;;;;;12.30;7.80;;;;;;;12.22;74.99;100154.47;1087822;54;20026;-81
2022/10/20 01:37:13;;;;;;;12.13;8.38;;;;;;;12.22;74.95;100154.47;1087885;54;20015;-80
2022/10/20 01:38:22;;;;;;;9.80;8.13;;;;;;;12.23;75.08;100155.31;1087803;54;21176;-81
2022/10/20 01:39:36;;;;;;;14.63;9.15;;;;;;;12.14;74.97;100155.22;1089137;39;20746;-80
2022/10/20 01:40:42;;;;;;;13.90;10.20;;;;;;;12.10;75.61;100151.19;1087743;54;20027;-81
2022/10/20 01:41:54;;;;;;;12.35;9.18;;;;;;;12.13;75.07;100150.88;1087784;54;20034;-80
2022/10/20 01:43:02;;;;;;;11.20;8.73;;;;;;;12.06;75.38;100155.13;1087834;54;20018;-81
2022/10/20 01:44:10;;;;;;;13.70;8.90;;;;;;;12.08;75.35;100150.47;1087965;47;20042;-80
2022/10/20 01:45:16;;;;;;;13.20;9.18;;;;;;;12.11;75.68;100149.31;1087687;54;20050;-81
2022/10/20 01:46:26;;;;;;;12.00;7.82;;;;;;;12.04;75.61;100149.13;1087773;54;20090;-80
2022/10/20 01:47:29;;;;;;;10.25;8.68;;;;;;;12.07;75.76;100148.78;1091327;39;20468;-80
2022/10/20 01:48:36;;;;;;;12.43;9.25;;;;;;;11.99;75.83;100146.91;1087866;54;20018;-81
2022/10/20 01:49:42;;;;;;;14.13;9.00;;;;;;;12.00;75.54;100137.00;1087715;54;20023;-82
2022/10/20 01:50:49;;;;;;;11.63;8.60;;;;;;;12.02;75.58;100138.53;1087797;54;20038;-80
2022/10/20 01:51:50;;;;;;;13.20;9.27;;;;;;;11.95;75.69;100136.59;1087822;54;20034;-81
2022/10/20 01:52:58;;;;;;;12.45;8.73;;;;;;;11.91;75.92;100137.88;1087677;54;20050;-80
2022/10/20 01:54:02;;;;;;;15.27;9.65;;;;;;;11.83;76.53;100138.63;1087613;54;20041;-80
2022/10/20 01:55:11;;;;;;;13.52;9.50;;;;;;;11.84;76.04;100143.00;1087614;54;20030;-80
2022/10/20 01:56:20;;;;;;;12.85;9.40;;;;;;;11.84;76.27;100141.19;1087647;54;20027;-80
2022/10/20 01:57:40;;;;;;;10.70;7.90;;;;;;;11.90;75.93;100133.50;1087255;54;20035;-80
2022/10/20 01:59:07;;;;;;;11.32;8.02;;;;;;;11.83;75.65;100138.63;1087773;54;20702;-82
2022/10/20 02:00:11;;;;;;;11.75;8.55;;;;;;;11.81;76.24;100129.91;1087677;54;20057;-80
2022/10/20 02:01:22;;;;;;;13.63;9.63;;;;;;;11.83;75.88;100127.91;1087579;54;20042;-80
2022/10/20 02:02:38;;;;;;;12.07;8.80;;;;;;;11.77;75.82;100118.66;1087764;54;20026;-84
2022/10/20 02:03:51;;;;;;;12.77;9.32;;;;;;;11.77;75.95;100118.66;1087884;54;20038;-84
2022/10/20 02:05:15;;;;;;;13.00;8.82;;;;;;;11.77;76.16;100134.72;1087821;54;20027;-84
2022/10/20 02:06:29;;;;;;;12.73;8.88;;;;;;;11.82;75.96;100120.88;1089465;39;20685;-84
2022/10/20 02:07:32;;;;;;;10.05;8.30;;;;;;;11.85;75.56;100121.41;1087921;54;20619;-84
2022/10/20 02:08:44;;;;;;;11.50;8.63;;;;;;;11.85;75.65;100121.41;1087881;54;20030;-84
2022/10/20 02:09:49;;;;;;;11.27;8.07;;;;;;;11.87;75.46;100118.59;1087809;54;20054;-84
2022/10/20 02:10:57;;;;;;;11.15;8.98;;;;;;;11.84;75.67;100108.19;1089497;47;20030;-83
2022/10/20 02:12:03;;;;;;;14.27;8.85;;;;;;;11.82;75.77;100119.06;1087808;54;20019;-84
2022/10/20 02:13:09;;;;;;;13.45;9.32;;;;;;;11.85;75.77;100116.03;1087863;54;20034;-85
2022/10/20 02:14:16;;;;;;;13.90;9.88;;;;;;;11.80;75.65;100118.34;1087846;54;20018;-85
2022/10/20 02:15:25;;;;;;;12.88;10.23;;;;;;;11.83;75.58;100109.16;1087776;54;20030;-85
2022/10/20 02:16:31;;;;;;;12.40;9.60;;;;;;;11.74;75.77;100102.91;1087652;54;20061;-85
2022/10/20 02:17:37;;;;;;;12.60;9.63;;;;;;;11.76;75.60;100116.13;1088135;54;20090;-82
2022/10/20 02:18:41;;;;;;;14.85;9.45;;;;;;;11.68;75.79;100115.06;1088192;54;20714;-84
2022/10/20 02:19:47;;;;;;;19.10;10.07;;;;;;;11.71;76.08;100114.72;1088053;54;20714;-82
2022/10/20 02:20:53;;;;;;;13.45;9.50;;;;;;;11.63;75.84;100113.81;1088175;54;20057;-83
2022/10/20 02:21:59;;;;;;;12.80;9.55;;;;;;;11.63;76.05;100109.28;1088637;39;20617;-86
2022/10/20 02:23:03;;;;;;;15.77;9.27;;;;;;;11.62;76.15;100109.44;1091410;46;20038;-83
2022/10/20 02:24:11;;;;;;;13.35;10.52;;;;;;;11.58;76.05;100114.25;1088182;54;20058;-84
2022/10/20 02:25:13;;;;;;;15.00;10.65;;;;;;;11.56;76.39;100113.56;1088121;54;20035;-84
2022/10/20 02:26:20;;;;;;;13.27;9.00;;;;;;;11.60;76.16;100114.09;1088523;39;20590;-86
2022/10/20 02:27:26;;;;;;;11.85;8.38;;;;;;;11.67;75.92;100117.84;1088168;54;20034;-85
2022/10/20 02:28:30;;;;;;;13.65;9.57;;;;;;;11.63;75.93;100117.31;1088209;54;20074;-85
2022/10/20 02:29:41;;;;;;;11.73;9.30;;;;;;;11.68;75.81;100114.19;1088137;54;20023;-85
2022/10/20 02:30:44;;;;;;;12.60;9.43;;;;;;;11.67;75.93;100112.50;1088138;54;20729;-83
2022/10/20 02:31:49;;;;;;;13.57;7.72;;;;;;;11.74;75.63;100113.59;1088394;54;20041;-85
2022/10/20 02:32:51;;;;;;;11.40;8.90;;;;;;;11.77;75.20;100107.09;1088508;54;20030;-85
2022/10/20 02:33:58;;;;;;;10.75;8.50;;;;;;;11.78;75.30;100103.44;1088428;54;20033;-83
2022/10/20 02:35:02;;;;;;;15.05;9.20;;;;;;;11.71;75.18;100108.53;1089774;46;20034;-84
2022/10/20 02:36:13;;;;;;;15.27;9.05;;;;;;;11.66;75.45;100095.59;1088307;54;20039;-83
2022/10/20 02:37:15;;;;;;;13.00;9.35;;;;;;;11.58;75.96;100086.63;1089042;46;20030;-86
2022/10/20 02:38:19;;;;;;;14.45;9.70;;;;;;;11.52;76.16;100080.06;1088291;54;20070;-84
2022/10/20 02:39:21;;;;;;;13.48;9.32;;;;;;;11.49;76.12;100083.03;1088103;54;20157;-85
2022/10/20 02:40:25;;;;;;;15.20;10.02;;;;;;;11.46;76.37;100088.69;1088154;54;20026;-84
2022/10/20 02:41:28;;;;;;;14.85;9.90;;;;;;;11.47;76.50;100085.00;1088137;54;20038;-86
2022/10/20 02:42:32;;;;;;;12.00;9.15;;;;;;;11.45;76.65;100087.00;1091731;39;20207;-86
2022/10/20 02:43:34;;;;;;;15.80;9.55;;;;;;;11.42;76.51;100092.66;1087930;54;20041;-85
2022/10/20 02:44:40;;;;;;;12.90;9.63;;;;;;;11.45;76.45;100081.63;1088708;39;20670;-85
2022/10/20 02:45:42;;;;;;;13.20;10.07;;;;;;;11.42;76.63;100093.50;1087818;54;20056;-85
2022/10/20 02:46:46;;;;;;;12.90;10.35;;;;;;;11.39;76.60;100093.78;1087906;54;20761;-85
2022/10/20 02:47:47;;;;;;;12.80;9.90;;;;;;;11.39;76.79;100096.47;1088097;54;20022;-85
2022/10/20 02:48:53;;;;;;;12.15;8.93;;;;;;;11.48;76.52;100086.69;1088197;54;20030;-84
2022/10/20 02:49:54;;;;;;;13.10;9.43;;;;;;;11.46;76.41;100083.31;1088148;54;20034;-85
2022/10/20 02:50:59;;;;;;;15.85;9.52;;;;;;;11.49;76.46;100085.72;1088155;54;20734;-87
2022/10/20 02:52:00;;;;;;;11.90;9.02;;;;;;;11.57;76.11;100084.97;1088094;54;20030;-85
2022/10/20 02:53:05;;;;;;;10.25;7.18;;;;;;;11.66;76.03;100087.56;1088166;54;20036;-85
2022/10/20 02:54:07;;;;;;;13.05;9.18;;;;;;;11.62;75.85;100088.84;1088145;54;20069;-86
2022/10/20 02:55:11;;;;;;;14.68;9.32;;;;;;;11.57;76.13;100085.81;1088069;54;20037;-86
2022/10/20 02:56:12;;;;;;;12.57;8.88;;;;;;;11.53;75.99;100095.13;1088182;54;20058;-85
2022/10/20 02:57:17;;;;;;;11.15;8.27;;;;;;;11.58;76.16;100092.84;1088152;54;20058;-85
2022/10/20 02:58:18;;;;;;;13.73;9.95;;;;;;;11.51;76.27;100097.94;1087925;39;20866;-85
2022/10/20 02:59:22;;;;;;;12.48;9.02;;;;;;;11.46;76.17;100092.22;1088125;54;20803;-85
2022/10/20 03:00:29;;;;;;;13.73;9.80;;;;;;;11.44;76.20;100090.66;1088186;54;20019;-84
2022/10/20 03:01:33;;;;;;;12.40;9.07;;;;;;;11.46;76.26;100092.22;1095696;39;20702;-87
2022/10/20 03:02:35;;;;;;;13.45;9.57;;;;;;;11.43;76.43;100083.66;1088115;54;20053;-84
2022/10/20 03:03:39;;;;;;;17.92;10.00;;;;;;;11.39;76.60;100083.94;1088540;46;20031;-84
2022/10/20 03:04:40;;;;;;;17.00;9.63;;;;;;;11.39;76.64;100088.44;1088072;54;20027;-85
2022/10/20 03:05:45;;;;;;;13.15;9.52;;;;;;;11.43;76.74;100089.81;1088136;54;20029;-87
2022/10/20 03:06:47;;;;;;;13.07;9.30;;;;;;;11.48;76.44;100097.41;1088092;54;20106;-86
2022/10/20 03:07:51;;;;;;;13.68;9.25;;;;;;;11.48;76.22;100097.41;1088135;54;20027;-86
2022/10/20 03:08:52;;;;;;;14.45;9.55;;;;;;;11.47;76.62;100085.88;1088203;54;20019;-82
2022/10/20 03:09:56;;;;;;;12.70;9.45;;;;;;;11.43;76.35;100083.66;1089578;39;20719;-88
2022/10/20 03:10:58;;;;;;;11.80;8.95;;;;;;;11.46;76.34;100092.22;1088102;54;20023;-84
2022/10/20 03:12:02;;;;;;;12.02;8.30;;;;;;;11.50;76.47;100087.41;1088027;54;20042;-83
2022/10/20 03:13:04;;;;;;;15.55;10.45;;;;;;;11.49;76.43;100093.75;1088176;54;20065;-84
2022/10/20 03:14:08;;;;;;;12.68;9.63;;;;;;;11.50;76.35;100092.75;1088151;54;20041;-83
2022/10/20 03:15:10;;;;;;;11.63;9.25;;;;;;;11.47;76.27;100087.69;1088084;54;20042;-84
2022/10/20 03:16:17;;;;;;;11.57;9.18;;;;;;;11.42;76.56;100093.50;1088059;54;20070;-83
2022/10/20 03:17:18;;;;;;;14.40;9.43;;;;;;;11.47;76.51;100091.22;1088159;54;20019;-83
2022/10/20 03:18:22;;;;;;;14.43;9.43;;;;;;;11.49;76.16;100099.09;1088110;54;20030;-81
2022/10/20 03:19:24;;;;;;;11.60;9.32;;;;;;;11.47;76.27;100095.72;1088138;54;20039;-84
2022/10/20 03:20:29;;;;;;;13.23;9.55;;;;;;;11.47;76.33;100096.59;1088087;54;20078;-83
2022/10/20 03:21:30;;;;;;;13.90;9.75;;;;;;;11.42;76.35;100098.03;1088037;54;20042;-83
2022/10/20 03:22:36;;;;;;;13.07;9.48;;;;;;;11.42;76.56;100090.00;1088140;54;20078;-84
2022/10/20 03:23:37;;;;;;;16.13;9.70;;;;;;;11.38;76.49;100092.94;1088186;54;20022;-83
2022/10/20 03:24:42;;;;;;;12.65;9.85;;;;;;;11.39;76.65;100091.09;1088142;54;20021;-82
2022/10/20 03:25:43;;;;;;;10.45;8.48;;;;;;;11.44;76.26;100091.50;1088139;54;20023;-82
2022/10/20 03:26:47;;;;;;;17.23;10.02;;;;;;;11.45;76.41;100098.56;1088149;54;20046;-83
2022/10/20 03:27:49;;;;;;;14.95;9.38;;;;;;;11.51;75.99;100089.09;1088035;54;20019;-83
2022/10/20 03:28:53;;;;;;;11.55;8.57;;;;;;;11.53;75.96;100087.09;1088131;54;20042;-83
2022/10/20 03:29:54;;;;;;;12.35;8.80;;;;;;;11.54;75.79;100086.94;1088082;54;20046;-84
2022/10/20 03:30:58;;;;;;;11.23;9.02;;;;;;;11.55;75.50;100083.28;1088181;54;20035;-81
2022/10/20 03:32:03;;;;;;;14.25;9.35;;;;;;;11.53;75.72;100076.38;1088060;54;20054;-84
2022/10/20 03:33:07;;;;;;;18.02;9.82;;;;;;;11.52;75.72;100085.44;1088086;54;20037;-83
2022/10/20 03:34:09;;;;;;;11.70;8.73;;;;;;;11.54;75.38;100070.88;1088124;54;20034;-85
2022/10/20 03:35:13;;;;;;;11.65;8.52;;;;;;;11.54;75.55;100076.25;1091049;46;20035;-84
2022/10/20 03:36:17;;;;;;;11.95;8.65;;;;;;;11.55;75.47;100087.78;1094145;39;20657;-83
2022/10/20 03:37:19;;;;;;;18.17;9.52;;;;;;;11.55;75.45;100077.94;1088021;54;20034;-84
2022/10/20 03:38:23;;;;;;;12.88;8.15;;;;;;;11.58;75.30;100082.13;1088085;54;20041;-84
2022/10/20 03:39:25;;;;;;;10.95;7.95;;;;;;;11.61;75.15;100083.66;1088116;54;20057;-85
2022/10/20 03:40:29;;;;;;;9.57;7.40;;;;;;;11.61;75.08;100086.34;1088159;54;20037;-87
2022/10/20 03:41:32;;;;;;;10.32;7.97;;;;;;;11.62;74.96;100082.66;1088049;54;20046;-84
2022/10/20 03:42:36;;;;;;;12.27;9.02;;;;;;;11.49;75.04;100077.69;1087943;54;20058;-80
2022/10/20 03:43:38;;;;;;;15.32;9.68;;;;;;;11.50;74.94;100074.84;1087913;54;20034;-79
2022/10/20 03:44:43;;;;;;;13.30;8.60;;;;;;;11.48;75.06;100082.19;1087967;54;20078;-84
2022/10/20 03:45:45;;;;;;;11.57;8.48;;;;;;;11.51;75.13;100086.41;1088195;54;20038;-83
2022/10/20 03:46:50;;;;;;;11.18;8.57;;;;;;;11.52;75.12;100083.56;1088207;54;20090;-85
2022/10/20 03:47:54;;;;;;;10.60;8.50;;;;;;;11.57;75.12;100074.25;1088112;54;20041;-83
2022/10/20 03:48:59;;;;;;;12.93;8.80;;;;;;;11.52;74.85;100083.56;1088282;54;20022;-85
2022/10/20 03:50:00;;;;;;;11.20;9.02;;;;;;;11.55;74.92;100077.06;1088127;54;20034;-85
2022/10/20 03:51:06;;;;;;;11.07;8.38;;;;;;;11.53;74.82;100081.72;1087953;54;20026;-81
2022/10/20 03:52:07;;;;;;;11.48;8.65;;;;;;;11.53;75.03;100079.91;1087824;54;20038;-79
2022/10/20 03:53:14;;;;;;;12.90;8.50;;;;;;;11.54;74.71;100076.25;1087910;54;20041;-81
2022/10/20 03:54:16;;;;;;;13.35;9.63;;;;;;;11.49;74.98;100075.00;1087928;54;20049;-80
2022/10/20 03:55:21;;;;;;;12.23;8.45;;;;;;;11.51;74.94;100070.34;1087886;54;20046;-80
2022/10/20 03:56:22;;;;;;;11.10;8.15;;;;;;;11.50;75.17;100074.00;1087962;54;20019;-80
2022/10/20 03:57:26;;;;;;;10.95;8.00;;;;;;;11.54;74.86;100072.69;1090891;39;20611;-80
2022/10/20 03:58:29;;;;;;;10.38;8.10;;;;;;;11.52;74.98;100072.88;1087646;54;20061;-83
2022/10/20 03:59:33;;;;;;;13.20;9.15;;;;;;;11.46;75.31;100070.81;1087791;54;20034;-80
2022/10/20 04:00:34;;;;;;;12.68;9.20;;;;;;;11.46;75.23;100067.25;1087860;54;20045;-80
2022/10/20 04:01:39;;;;;;;12.63;8.45;;;;;;;11.41;75.56;100066.88;1089153;46;20749;-81
2022/10/20 04:02:42;;;;;;;11.13;9.52;;;;;;;11.43;75.65;100056.88;1087823;54;20039;-81
2022/10/20 04:03:49;;;;;;;10.60;7.97;;;;;;;11.41;75.71;100059.69;1087824;54;20166;-80
2022/10/20 04:04:51;;;;;;;16.25;10.07;;;;;;;11.42;75.61;100060.53;1087850;54;20034;-81
2022/10/20 04:05:55;;;;;;;13.25;9.07;;;;;;;11.43;75.38;100056.88;1087861;54;20033;-80
2022/10/20 04:06:56;;;;;;;12.02;8.70;;;;;;;11.45;75.58;100049.50;1087866;54;20022;-81
2022/10/20 04:08:00;;;;;;;12.88;8.38;;;;;;;11.45;75.59;100052.19;1087914;54;20106;-81
2022/10/20 04:09:05;;;;;;;9.95;8.05;;;;;;;11.45;75.70;100044.16;1088069;54;20030;-86
2022/10/20 04:10:10;;;;;;;9.93;7.90;;;;;;;11.46;75.87;100051.19;1090341;39;20677;-81
2022/10/20 04:11:11;;;;;;;10.45;8.07;;;;;;;11.46;75.77;100045.84;1088014;54;20086;-84
2022/10/20 04:12:17;;;;;;;13.63;8.43;;;;;;;11.44;75.60;100034.44;1087978;54;20030;-82
2022/10/20 04:13:18;;;;;;;14.15;9.15;;;;;;;11.43;75.34;100030.94;1087898;54;20058;-84
2022/10/20 04:14:22;;;;;;;12.07;8.77;;;;;;;11.41;75.77;100026.75;1087762;54;20730;-84
2022/10/20 04:15:24;;;;;;;10.20;7.95;;;;;;;11.45;75.63;100026.28;1087752;54;20038;-85
2022/10/20 04:16:28;;;;;;;11.95;8.95;;;;;;;11.43;75.65;100027.44;1087704;54;20030;-82
2022/10/20 04:17:30;;;;;;;13.93;10.30;;;;;;;11.42;75.88;100034.59;1088028;54;20043;-84
2022/10/20 04:18:34;;;;;;;11.55;8.77;;;;;;;11.50;75.69;100032.00;1088047;54;20038;-83
2022/10/20 04:19:38;;;;;;;11.55;8.48;;;;;;;11.49;75.63;100029.50;1087963;54;20042;-85
2022/10/20 04:20:42;;;;;;;11.93;8.82;;;;;;;11.51;75.66;100039.06;1088072;54;20030;-84
2022/10/20 04:21:43;;;;;;;11.45;8.82;;;;;;;11.56;75.43;100030.56;1087803;54;21082;-80
2022/10/20 04:22:47;;;;;;;12.45;8.43;;;;;;;11.55;75.34;100035.09;1087840;54;20825;-80
2022/10/20 04:23:49;;;;;;;12.27;9.10;;;;;;;11.54;75.18;100036.09;1087869;54;20050;-79
2022/10/20 04:24:53;;;;;;;12.77;9.45;;;;;;;11.52;75.66;100030.03;1087754;54;20034;-80
2022/10/20 04:25:54;;;;;;;12.77;9.77;;;;;;;11.60;75.25;100039.13;1087841;54;21226;-81
2022/10/20 04:26:59;;;;;;;10.57;8.45;;;;;;;11.63;75.38;100042.34;1088681;46;20034;-80
2022/10/20 04:28:00;;;;;;;11.15;9.02;;;;;;;11.60;74.92;100036.47;1087832;54;20034;-80
2022/10/20 04:29:04;;;;;;;13.93;8.27;;;;;;;11.60;75.36;100042.66;1087889;54;20094;-80
2022/10/20 04:30:08;;;;;;;10.60;7.68;;;;;;;11.66;75.13;100039.38;1087794;54;20034;-81
2022/10/20 04:31:12;;;;;;;10.95;7.85;;;;;;;11.67;74.85;100033.03;1087885;54;20034;-80
2022/10/20 04:32:14;;;;;;;10.25;7.78;;;;;;;11.65;75.12;100040.38;1087834;54;20057;-79
2022/10/20 04:33:18;;;;;;;10.85;8.45;;;;;;;11.66;75.00;100034.03;1087865;54;20034;-81
2022/10/20 04:34:20;;;;;;;13.43;9.68;;;;;;;11.59;74.80;100027.59;1087901;54;20041;-81
2022/10/20 04:35:27;;;;;;;15.98;10.25;;;;;;;11.59;75.36;100022.25;1087743;54;20082;-82
2022/10/20 04:36:28;;;;;;;11.93;8.63;;;;;;;11.65;75.06;100026.16;1087863;54;20038;-80
2022/10/20 04:37:32;;;;;;;12.32;8.95;;;;;;;11.63;74.96;100026.28;1087789;54;20127;-80
2022/10/20 04:38:34;;;;;;;12.00;9.13;;;;;;;11.63;75.29;100028.97;1091360;39;20626;-80
2022/10/20 04:39:38;;;;;;;10.75;8.20;;;;;;;11.65;74.87;100032.34;1087579;54;20038;-81
2022/10/20 04:40:40;;;;;;;12.43;8.98;;;;;;;11.69;74.77;100039.09;1088811;39;20102;-80
2022/10/20 04:41:44;;;;;;;12.23;7.97;;;;;;;11.68;74.71;100034.72;1087793;54;20038;-80
2022/10/20 04:42:45;;;;;;;10.25;8.00;;;;;;;11.71;74.88;100039.75;1087734;54;20034;-81
2022/10/20 04:43:52;;;;;;;10.13;7.85;;;;;;;11.64;74.87;100038.69;1087830;54;20021;-81
2022/10/20 04:44:54;;;;;;;12.07;8.38;;;;;;;11.68;74.93;100029.34;1089735;39;20998;-82
2022/10/20 04:46:01;;;;;;;10.70;7.78;;;;;;;11.65;74.95;100024.31;1087851;54;20031;-80
2022/10/20 04:47:03;;;;;;;12.27;8.65;;;;;;;11.65;74.79;100024.31;1090298;39;20562;-80
2022/10/20 04:48:08;;;;;;;10.15;8.07;;;;;;;11.67;74.94;100019.63;1087848;54;20041;-80
2022/10/20 04:49:12;;;;;;;12.35;8.55;;;;;;;11.68;74.73;100017.78;1087874;54;20030;-80
2022/10/20 04:50:13;;;;;;;14.32;9.13;;;;;;;11.69;75.03;100014.97;1088153;54;20023;-87
2022/10/20 08:23:44;;;;;;;11.13;7.75;;;;;;;15.39;67.25;99950.47;1079906;39;52247;-80
2022/10/20 08:24:46;;;;;;;10.13;6.63;;;;;;;15.30;68.02;99951.53;1087828;54;20035;-77
2022/10/20 08:25:50;;;;;;;9.60;7.18;;;;;;;15.24;68.07;99949.53;1087791;54;20026;-78
2022/10/20 08:26:54;;;;;;;9.63;6.75;;;;;;;15.21;68.53;99949.91;1088628;31;20799;-78
2022/10/20 08:27:58;;;;;;;9.38;6.40;;;;;;;15.29;68.46;99942.59;1087871;54;20030;-79
2022/10/20 08:29:02;;;;;;;8.13;6.20;;;;;;;15.42;67.95;99939.31;1087727;54;20884;-79
2022/10/20 08:30:05;;;;;;;8.75;5.95;;;;;;;15.55;67.60;99940.59;1087707;54;20035;-79
2022/10/20 08:31:09;;;;;;;10.25;7.60;;;;;;;15.65;67.31;99933.09;1087830;54;20035;-79
2022/10/20 08:32:13;;;;;;;7.78;5.90;;;;;;;15.79;67.24;99927.91;1092899;39;20658;-80
2022/10/20 08:33:17;;;;;;;8.02;6.32;;;;;;;15.88;66.63;99922.31;1087760;54;20033;-79